Time;durP1;ratioP1;P1;durP2;ratioP2;P2;SDS_P1;SDS_P2;PMS_P1;PMS_P2;Temp;Humidity;BMP_temperature;BMP_pressure;BME280_temperature;BME280_humidity;BME280_pressure;Samples;Min_cycle;Max_cycle;Signal;HPM_P1;HPM_P2
2022/05/14 00:00:45;;;;;;;7.88;2.00;;;17.30;46.70;;;;;;5061420;28;20381;-48
2022/05/14 00:03:14;;;;;;;5.65;1.63;;;17.30;46.70;;;;;;5057865;28;20083;-46
2022/05/14 00:05:42;;;;;;;11.02;2.03;;;17.30;46.70;;;;;;5061776;28;20049;-46
2022/05/14 00:08:10;;;;;;;2.75;1.63;;;17.30;46.70;;;;;;5060300;28;20049;-45
2022/05/14 00:13:19;;;;;;;4.00;1.73;;;17.20;46.60;;;;;;5056637;28;20045;-47
2022/05/14 00:15:47;;;;;;;8.70;1.88;;;17.20;46.60;;;;;;5057965;28;20063;-50
2022/05/14 00:18:16;;;;;;;7.35;1.73;;;17.20;46.70;;;;;;5060401;28;20048;-48
2022/05/14 00:20:43;;;;;;;4.05;1.40;;;17.30;46.70;;;;;;5060682;28;20056;-45
2022/05/14 00:23:11;;;;;;;6.55;1.58;;;17.20;46.70;;;;;;5056671;28;20063;-47
2022/05/14 00:25:38;;;;;;;4.13;1.35;;;17.20;46.70;;;;;;5059386;28;20055;-45
2022/05/14 00:28:06;;;;;;;3.90;1.33;;;17.20;46.70;;;;;;5059751;28;20052;-47
2022/05/14 00:30:34;;;;;;;4.10;1.30;;;17.20;46.60;;;;;;5059820;28;20430;-46
2022/05/14 00:33:01;;;;;;;8.13;2.05;;;17.20;46.70;;;;;;5055696;28;20063;-46
2022/05/14 00:35:30;;;;;;;3.05;1.42;;;17.20;46.70;;;;;;5059032;28;20447;-47
2022/05/14 00:37:58;;;;;;;3.42;1.30;;;17.20;46.70;;;;;;5060214;28;20054;-48
2022/05/14 00:40:30;;;;;;;3.78;1.70;;;17.20;46.70;;;;;;5059426;28;20053;-45
2022/05/14 00:42:59;;;;;;;7.90;1.65;;;17.20;46.70;;;;;;5058810;28;20067;-47
2022/05/14 00:45:28;;;;;;;8.70;1.83;;;17.20;46.60;;;;;;5059270;28;20060;-47
2022/05/14 00:47:58;;;;;;;12.55;1.65;;;17.10;46.60;;;;;;5055836;28;20055;-48
2022/05/14 00:50:33;;;;;;;8.65;1.85;;;17.20;46.70;;;;;;5057583;28;20056;-46
2022/05/14 00:53:07;;;;;;;6.50;1.38;;;17.10;46.60;;;;;;5057262;28;20428;-46
2022/05/14 00:55:36;;;;;;;7.05;1.75;;;17.10;46.70;;;;;;5059634;28;20056;-46
2022/05/14 00:58:05;;;;;;;5.85;2.22;;;17.10;46.60;;;;;;5059711;28;20048;-45
2022/05/14 01:00:32;;;;;;;6.65;2.13;;;17.10;46.70;;;;;;5058165;28;20045;-47
2022/05/14 01:02:59;;;;;;;3.90;1.52;;;17.10;46.60;;;;;;5056096;28;20048;-46
2022/05/14 01:05:28;;;;;;;7.65;1.60;;;17.10;46.70;;;;;;5058994;28;20056;-45
2022/05/14 01:07:56;;;;;;;3.70;1.35;;;17.00;46.70;;;;;;5059280;28;20048;-47
2022/05/14 01:10:32;;;;;;;3.88;1.38;;;17.10;46.70;;;;;;5060346;28;20067;-47
2022/05/14 01:13:02;;;;;;;6.43;1.65;;;17.00;46.70;;;;;;5058420;28;20056;-47
2022/05/14 01:15:41;;;;;;;5.47;1.70;;;17.00;46.70;;;;;;5058361;28;20059;-47
2022/05/14 01:18:09;;;;;;;7.40;1.80;;;17.00;46.80;;;;;;5058473;28;20056;-47
2022/05/14 01:20:37;;;;;;;5.78;1.33;;;16.90;46.70;;;;;;5057630;28;20048;-48
2022/05/14 01:23:14;;;;;;;5.75;1.60;;;16.90;46.70;;;;;;5057815;28;20064;-45
2022/05/14 01:28:41;;;;;;;5.90;1.40;;;16.90;46.70;;;;;;5065141;28;20064;-46
2022/05/14 01:31:09;;;;;;;7.75;1.30;;;16.90;46.60;;;;;;5059683;28;20059;-45
2022/05/14 01:33:36;;;;;;;4.95;1.58;;;16.90;46.70;;;;;;5053725;28;20053;-47
2022/05/14 01:36:06;;;;;;;7.20;1.70;;;16.80;46.60;;;;;;5058613;28;20063;-49
2022/05/14 01:38:34;;;;;;;6.30;2.13;;;16.80;46.60;;;;;;5054379;28;20055;-46
2022/05/14 01:41:04;;;;;;;9.70;1.80;;;16.70;46.60;;;;;;5058419;28;20045;-48
2022/05/14 01:43:32;;;;;;;7.93;1.50;;;16.70;46.60;;;;;;5053494;28;20053;-50
2022/05/14 01:46:00;;;;;;;5.60;1.60;;;16.70;46.60;;;;;;5059729;28;20373;-46
2022/05/14 01:48:27;;;;;;;5.82;1.60;;;16.70;46.60;;;;;;5055806;28;21436;-46
2022/05/14 01:50:55;;;;;;;8.20;1.30;;;16.70;46.60;;;;;;5058175;28;20052;-46
2022/05/14 01:53:22;;;;;;;4.70;1.52;;;16.70;46.60;;;;;;5056507;28;20053;-48
2022/05/14 01:55:49;;;;;;;4.45;1.60;;;16.60;46.60;;;;;;5057666;28;20059;-48
2022/05/14 02:01:07;;;;;;;5.22;1.52;;;16.60;46.60;;;;;;5065708;28;20067;-45
2022/05/14 02:03:36;;;;;;;6.72;1.80;;;16.60;46.70;;;;;;5054937;28;20057;-46
2022/05/14 02:06:03;;;;;;;4.47;1.25;;;16.60;46.70;;;;;;5057632;28;20059;-50
2022/05/14 02:08:31;;;;;;;8.27;1.50;;;16.60;46.70;;;;;;5056329;28;20052;-50
2022/05/14 02:10:58;;;;;;;4.68;1.60;;;16.60;46.70;;;;;;5058851;28;20040;-45
2022/05/14 02:13:28;;;;;;;4.90;1.27;;;16.50;46.90;;;;;;5056187;28;20579;-46
2022/05/14 02:15:57;;;;;;;3.88;1.60;;;16.50;47.00;;;;;;5056261;28;20060;-48
2022/05/14 02:18:25;;;;;;;4.57;1.40;;;16.50;47.00;;;;;;5058287;28;20056;-46
2022/05/14 02:20:52;;;;;;;8.02;1.83;;;16.50;46.90;;;;;;5058828;28;20045;-48
2022/05/14 02:23:20;;;;;;;6.30;2.00;;;16.50;46.90;;;;;;5056726;28;20060;-47
2022/05/14 02:25:48;;;;;;;5.13;1.55;;;16.40;46.80;;;;;;5057340;28;20064;-47
2022/05/14 02:28:16;;;;;;;5.18;1.77;;;16.40;46.90;;;;;;5057602;28;20085;-47
2022/05/14 02:30:46;;;;;;;4.82;1.50;;;16.40;46.90;;;;;;5059141;28;20051;-47
2022/05/14 02:33:13;;;;;;;7.68;1.83;;;16.40;46.90;;;;;;5055101;28;20059;-51
2022/05/14 02:35:41;;;;;;;4.97;1.48;;;16.40;46.90;;;;;;5059012;28;20052;-48
2022/05/14 02:38:09;;;;;;;4.82;1.35;;;16.30;46.90;;;;;;5059809;28;20063;-47
2022/05/14 02:40:36;;;;;;;4.78;1.63;;;16.30;47.10;;;;;;5057702;28;20504;-46
2022/05/14 02:43:04;;;;;;;5.85;1.80;;;16.30;47.10;;;;;;5054869;28;20051;-46
2022/05/14 02:45:31;;;;;;;8.27;1.50;;;16.30;47.10;;;;;;5057316;28;20065;-49
2022/05/14 02:48:00;;;;;;;6.53;2.05;;;16.30;47.10;;;;;;5058241;28;20075;-50
2022/05/14 02:50:28;;;;;;;7.18;1.80;;;16.30;47.10;;;;;;5061686;28;20079;-48
2022/05/14 02:52:56;;;;;;;7.75;1.67;;;16.20;47.10;;;;;;5061092;28;20535;-49
2022/05/14 02:55:24;;;;;;;3.15;1.50;;;16.20;47.20;;;;;;5059743;28;20052;-46
2022/05/14 02:57:51;;;;;;;5.72;2.13;;;16.20;47.20;;;;;;5062749;28;20059;-46
2022/05/14 03:00:21;;;;;;;6.25;1.58;;;16.20;47.30;;;;;;5059660;28;20427;-48
2022/05/14 03:02:48;;;;;;;11.95;1.90;;;16.20;47.40;;;;;;5059245;28;20056;-48
2022/05/14 03:05:20;;;;;;;8.10;1.80;;;16.20;47.40;;;;;;5062476;28;20057;-49
2022/05/14 03:07:48;;;;;;;6.82;1.67;;;16.10;47.40;;;;;;5058509;28;20052;-47
2022/05/14 03:10:16;;;;;;;9.32;2.00;;;16.10;47.40;;;;;;5061253;28;20056;-48
2022/05/14 03:12:44;;;;;;;5.80;1.98;;;16.10;47.60;;;;;;5059705;28;20060;-47
2022/05/14 03:15:13;;;;;;;6.05;1.75;;;16.00;47.50;;;;;;5060209;28;20512;-47
2022/05/14 03:17:40;;;;;;;5.97;1.35;;;16.00;47.60;;;;;;5060880;28;20048;-48
2022/05/14 03:20:10;;;;;;;5.90;2.42;;;16.00;47.60;;;;;;5061235;28;20067;-51
2022/05/14 03:22:40;;;;;;;7.10;1.50;;;16.00;47.70;;;;;;5056341;28;20392;-47
2022/05/14 03:25:09;;;;;;;4.47;1.38;;;15.90;47.80;;;;;;5062175;28;20412;-48
2022/05/14 03:27:38;;;;;;;3.60;1.30;;;15.90;47.90;;;;;;5059202;28;20075;-46
2022/05/14 03:30:07;;;;;;;7.13;1.27;;;15.90;47.80;;;;;;5061663;28;20059;-48
2022/05/14 03:32:34;;;;;;;4.03;1.50;;;15.80;47.70;;;;;;5055708;28;20067;-47
2022/05/14 03:35:05;;;;;;;7.03;1.92;;;15.80;47.70;;;;;;5061021;28;20061;-48
2022/05/14 03:37:34;;;;;;;6.00;1.50;;;15.80;47.70;;;;;;5060912;28;20060;-46
2022/05/14 03:40:04;;;;;;;4.82;1.52;;;15.70;47.70;;;;;;5059555;28;20063;-49
2022/05/14 03:42:32;;;;;;;4.50;1.60;;;15.70;47.70;;;;;;5058515;28;20139;-46
2022/05/14 03:45:00;;;;;;;5.30;1.50;;;15.70;48.40;;;;;;5061254;28;20052;-49
2022/05/14 03:47:28;;;;;;;5.63;1.63;;;15.70;47.80;;;;;;5057462;28;20060;-46
2022/05/14 03:49:56;;;;;;;7.75;1.30;;;15.60;47.70;;;;;;5061705;28;20826;-46
2022/05/14 03:52:23;;;;;;;4.60;1.40;;;15.60;47.70;;;;;;5058788;28;20048;-46
2022/05/14 03:54:51;;;;;;;3.92;1.25;;;15.60;47.80;;;;;;5059732;28;20688;-47
2022/05/14 03:57:20;;;;;;;6.38;1.55;;;15.50;47.70;;;;;;5060314;28;20052;-49
2022/05/14 03:59:47;;;;;;;5.50;1.52;;;15.50;47.70;;;;;;5060959;28;20510;-50
2022/05/14 04:02:15;;;;;;;4.68;1.50;;;15.50;47.70;;;;;;5056303;28;20546;-46
2022/05/14 04:04:43;;;;;;;5.40;1.65;;;15.50;47.60;;;;;;5029415;28;20052;-48
2022/05/14 04:07:11;;;;;;;5.70;1.23;;;15.50;47.60;;;;;;5061185;28;20044;-45
2022/05/14 04:09:38;;;;;;;5.07;1.73;;;15.40;47.60;;;;;;5059081;28;20044;-46
2022/05/14 04:12:08;;;;;;;6.57;1.80;;;15.40;47.70;;;;;;5056044;28;21435;-48
2022/05/14 04:14:37;;;;;;;6.70;1.23;;;15.40;47.70;;;;;;5058831;28;20536;-46
2022/05/14 04:17:05;;;;;;;6.05;1.70;;;15.30;47.70;;;;;;5049941;28;20052;-48
2022/05/14 04:19:33;;;;;;;5.50;1.60;;;15.30;47.70;;;;;;5054964;28;20500;-45
2022/05/14 04:22:00;;;;;;;4.20;1.35;;;15.30;47.70;;;;;;5056556;28;20059;-46
2022/05/14 04:24:28;;;;;;;9.00;1.50;;;15.30;47.70;;;;;;5059066;28;20069;-48
2022/05/14 04:26:56;;;;;;;6.53;1.40;;;15.30;47.70;;;;;;5059136;28;20436;-50
2022/05/14 04:29:23;;;;;;;3.45;1.25;;;15.30;47.70;;;;;;5055251;28;20056;-46
2022/05/14 04:31:52;;;;;;;4.93;1.60;;;15.30;47.70;;;;;;5054569;28;20052;-46
2022/05/14 04:34:20;;;;;;;3.38;1.27;;;15.20;47.60;;;;;;5058962;28;20056;-49
2022/05/14 04:36:47;;;;;;;5.10;1.30;;;15.20;47.60;;;;;;5060013;28;20056;-46
2022/05/14 04:39:15;;;;;;;4.10;1.33;;;15.20;47.60;;;;;;5058060;28;20527;-46
2022/05/14 04:41:42;;;;;;;6.32;1.30;;;15.20;47.70;;;;;;5055845;28;20051;-46
2022/05/14 04:44:10;;;;;;;4.90;1.50;;;15.20;47.70;;;;;;5059201;28;20051;-47
2022/05/14 04:46:37;;;;;;;4.18;1.65;;;15.20;47.70;;;;;;5054558;28;20056;-47
2022/05/14 04:49:06;;;;;;;8.60;1.90;;;15.20;47.70;;;;;;5058733;28;20063;-48
2022/05/14 04:51:34;;;;;;;7.63;1.38;;;15.20;47.80;;;;;;5059994;28;20507;-48
2022/05/14 04:54:01;;;;;;;5.03;1.58;;;15.20;47.80;;;;;;5055617;28;20056;-52
2022/05/14 04:56:29;;;;;;;4.95;2.40;;;15.20;48.00;;;;;;5060015;28;20420;-47
2022/05/14 04:58:56;;;;;;;9.48;2.60;;;15.20;48.20;;;;;;5058173;28;20052;-47
2022/05/14 05:01:23;;;;;;;4.13;1.60;;;15.20;48.40;;;;;;5058621;28;20056;-47
2022/05/14 05:03:50;;;;;;;3.35;1.20;;;15.20;48.50;;;;;;5057129;28;20044;-45
2022/05/14 05:06:19;;;;;;;5.53;1.63;;;15.20;48.50;;;;;;5060504;28;20060;-49
2022/05/14 05:08:46;;;;;;;5.65;1.40;;;15.20;48.70;;;;;;5030215;28;20051;-47
2022/05/14 05:11:14;;;;;;;4.30;1.40;;;15.20;48.70;;;;;;5041609;28;20056;-47
2022/05/14 05:13:41;;;;;;;5.30;1.60;;;15.20;48.90;;;;;;5053327;28;20048;-48
2022/05/14 05:16:09;;;;;;;2.47;1.20;;;15.20;49.00;;;;;;5049804;28;20044;-49
2022/05/14 05:18:37;;;;;;;2.90;1.40;;;15.20;49.20;;;;;;5050139;28;21423;-45
2022/05/14 05:21:06;;;;;;;4.03;1.60;;;15.20;49.30;;;;;;5047246;28;20063;-46
2022/05/14 05:23:35;;;;;;;4.57;1.45;;;15.20;49.40;;;;;;5044839;28;20055;-47
2022/05/14 05:26:03;;;;;;;6.05;1.73;;;15.20;49.50;;;;;;5049700;28;20086;-53
2022/05/14 05:28:30;;;;;;;2.85;1.10;;;15.20;49.60;;;;;;5047684;28;20048;-46
2022/05/14 05:30:58;;;;;;;10.98;2.17;;;15.20;49.80;;;;;;5051251;28;20056;-51
2022/05/14 05:33:26;;;;;;;7.07;1.48;;;15.20;50.10;;;;;;5053691;28;20052;-47
2022/05/14 05:35:54;;;;;;;4.32;1.75;;;15.30;50.20;;;;;;5045979;28;20060;-47
2022/05/14 05:38:21;;;;;;;4.95;1.80;;;15.30;50.00;;;;;;5047794;28;20056;-50
2022/05/14 05:40:52;;;;;;;7.15;1.85;;;15.30;50.10;;;;;;5055656;28;20064;-46
2022/05/14 05:43:20;;;;;;;7.65;1.85;;;15.40;50.40;;;;;;5051852;28;20048;-50
2022/05/14 05:45:49;;;;;;;10.23;2.22;;;15.40;50.10;;;;;;5053957;28;20052;-47
2022/05/14 05:48:17;;;;;;;8.13;2.05;;;15.40;50.20;;;;;;5051573;28;20389;-47
2022/05/14 05:50:48;;;;;;;6.65;2.03;;;15.40;49.90;;;;;;5050211;28;20488;-50
2022/05/14 05:53:16;;;;;;;4.53;1.90;;;15.40;49.90;;;;;;5047805;28;20432;-45
2022/05/14 05:58:31;;;;;;;9.13;2.17;;;15.40;49.60;;;;;;5060590;28;20734;-46
2022/05/14 06:00:59;;;;;;;12.18;2.30;;;15.50;49.60;;;;;;5053582;28;20055;-47
2022/05/14 06:03:26;;;;;;;8.38;1.75;;;15.50;49.30;;;;;;5049104;28;20473;-50
2022/05/14 06:05:54;;;;;;;5.53;1.67;;;15.50;49.40;;;;;;5053742;28;20480;-46
2022/05/14 06:08:22;;;;;;;5.47;1.58;;;15.50;49.20;;;;;;5050633;28;20048;-48
2022/05/14 06:10:49;;;;;;;5.60;1.60;;;15.50;49.10;;;;;;5047802;28;20527;-46
2022/05/14 06:13:17;;;;;;;7.70;1.58;;;15.60;49.20;;;;;;5050696;28;20056;-50
2022/05/14 06:15:46;;;;;;;8.32;1.73;;;15.60;49.00;;;;;;5048838;28;20059;-46
2022/05/14 06:18:13;;;;;;;6.53;1.40;;;15.60;48.50;;;;;;5055949;28;20060;-45
2022/05/14 06:20:41;;;;;;;7.88;2.00;;;15.60;48.80;;;;;;5055755;28;20060;-45
2022/05/14 06:23:09;;;;;;;8.15;1.60;;;15.70;48.60;;;;;;5053312;28;20059;-46
2022/05/14 06:25:37;;;;;;;7.80;1.60;;;15.70;48.70;;;;;;5053713;28;20060;-46
2022/05/14 06:28:05;;;;;;;11.25;2.80;;;15.70;48.70;;;;;;5057414;28;20053;-45
2022/05/14 06:30:33;;;;;;;4.82;1.73;;;15.70;49.10;;;;;;5040920;28;20063;-46
2022/05/14 06:33:06;;;;;;;6.22;1.73;;;15.70;48.90;;;;;;5051230;28;20063;-47
2022/05/14 06:35:35;;;;;;;6.60;2.08;;;15.70;49.20;;;;;;5058691;28;20408;-49
2022/05/14 06:38:04;;;;;;;7.43;1.88;;;15.80;49.40;;;;;;5053433;28;20051;-46
2022/05/14 06:40:32;;;;;;;4.45;1.90;;;15.80;49.40;;;;;;5058774;28;20063;-47
2022/05/14 06:43:00;;;;;;;9.43;2.10;;;15.80;49.50;;;;;;5056425;28;20049;-45
2022/05/14 06:45:27;;;;;;;8.15;1.90;;;15.80;49.60;;;;;;5058335;28;20052;-46
2022/05/14 06:47:55;;;;;;;6.55;2.20;;;15.80;49.10;;;;;;5059907;28;20663;-48
2022/05/14 06:50:25;;;;;;;7.35;2.08;;;15.80;49.00;;;;;;5059895;28;20069;-48
2022/05/14 06:52:56;;;;;;;4.60;1.50;;;15.80;49.10;;;;;;5052827;28;20055;-52
2022/05/14 06:55:26;;;;;;;5.07;1.75;;;15.90;49.30;;;;;;5053448;28;20404;-46
2022/05/14 06:57:54;;;;;;;7.13;2.03;;;15.90;49.20;;;;;;5052221;28;20487;-48
2022/05/14 07:00:23;;;;;;;6.85;2.13;;;16.00;49.00;;;;;;5055000;28;20696;-45
2022/05/14 07:02:51;;;;;;;7.40;2.35;;;16.10;48.70;;;;;;5056241;28;20519;-47
2022/05/14 07:08:08;;;;;;;7.22;1.85;;;16.10;48.70;;;;;;5055412;28;20056;-47
2022/05/14 07:10:35;;;;;;;6.07;1.80;;;16.10;48.70;;;;;;5048754;28;20503;-49
2022/05/14 07:13:03;;;;;;;7.28;2.55;;;16.20;48.40;;;;;;5051872;28;20052;-47
2022/05/14 07:15:31;;;;;;;6.22;2.33;;;16.20;48.70;;;;;;5045961;28;20484;-50
2022/05/14 07:17:58;;;;;;;9.52;2.47;;;16.20;49.20;;;;;;5050900;28;20515;-49
2022/05/14 07:20:26;;;;;;;8.98;2.22;;;16.10;49.10;;;;;;5050853;28;20362;-46
2022/05/14 07:22:53;;;;;;;9.40;3.42;;;16.20;48.90;;;;;;5052131;28;20063;-45
2022/05/14 07:25:22;;;;;;;10.35;2.50;;;16.20;48.80;;;;;;5048764;28;20056;-45
2022/05/14 07:27:50;;;;;;;6.75;2.28;;;16.20;48.60;;;;;;5060101;28;20056;-46
2022/05/14 07:30:17;;;;;;;8.02;2.90;;;16.20;48.60;;;;;;5050830;28;20056;-50
2022/05/14 07:32:45;;;;;;;6.57;2.58;;;16.20;48.80;;;;;;5044806;28;20412;-46
2022/05/14 07:35:12;;;;;;;13.20;3.00;;;16.20;48.50;;;;;;5045257;28;20048;-47
2022/05/14 07:37:42;;;;;;;7.43;2.53;;;16.30;48.20;;;;;;5050744;28;20056;-48
2022/05/14 07:40:14;;;;;;;7.30;2.53;;;16.30;47.90;;;;;;5060372;28;20063;-49
2022/05/14 07:42:47;;;;;;;4.18;2.35;;;16.30;48.50;;;;;;5057081;28;20056;-46
2022/05/14 07:45:21;;;;;;;7.50;3.22;;;16.40;48.60;;;;;;5058609;28;20045;-45
2022/05/14 07:47:50;;;;;;;9.38;2.75;;;16.40;48.30;;;;;;5058669;28;20417;-47
2022/05/14 07:50:18;;;;;;;10.90;2.30;;;16.40;48.30;;;;;;5059504;28;20064;-45
2022/05/14 07:52:46;;;;;;;9.50;2.80;;;16.40;48.30;;;;;;5060970;28;20059;-45
2022/05/14 07:55:13;;;;;;;14.43;3.45;;;16.40;47.80;;;;;;5060693;28;20052;-46
2022/05/14 07:57:41;;;;;;;10.73;2.75;;;16.50;48.30;;;;;;5060365;28;20536;-46
2022/05/14 08:00:11;;;;;;;10.32;2.90;;;16.50;48.50;;;;;;5060059;28;20056;-45
2022/05/14 08:02:42;;;;;;;8.60;3.00;;;16.50;48.30;;;;;;5056688;28;20059;-46
2022/05/14 08:05:10;;;;;;;8.20;2.88;;;16.60;48.10;;;;;;5057664;28;20055;-45
2022/05/14 08:07:38;;;;;;;6.72;2.22;;;16.60;49.20;;;;;;5054771;28;20055;-46
2022/05/14 08:10:08;;;;;;;6.47;2.22;;;16.70;48.80;;;;;;5056938;28;20049;-46
2022/05/14 08:12:38;;;;;;;6.65;2.50;;;16.80;49.00;;;;;;5056694;28;20049;-46
2022/05/14 08:15:07;;;;;;;10.25;3.28;;;16.80;48.50;;;;;;5058893;28;20515;-46
2022/05/14 08:17:36;;;;;;;10.68;3.35;;;16.90;48.60;;;;;;5055969;28;20412;-50
2022/05/14 08:20:04;;;;;;;11.50;3.22;;;17.00;48.20;;;;;;5059434;28;20055;-45
2022/05/14 08:25:17;;;;;;;5.35;2.08;;;17.10;47.40;;;;;;5048223;28;20059;-46
2022/05/14 08:27:47;;;;;;;7.10;2.65;;;17.20;47.80;;;;;;5046580;28;20484;-46
2022/05/14 08:30:18;;;;;;;8.98;2.67;;;17.20;48.20;;;;;;5057466;28;20064;-47
2022/05/14 08:32:47;;;;;;;8.90;2.80;;;17.30;48.30;;;;;;5050804;28;20061;-47
2022/05/14 08:35:15;;;;;;;8.88;3.00;;;17.30;47.90;;;;;;5055909;28;20048;-46
2022/05/14 08:37:44;;;;;;;14.57;2.58;;;17.40;48.20;;;;;;5054255;28;20064;-46
2022/05/14 08:40:17;;;;;;;8.45;2.42;;;17.40;47.80;;;;;;5057331;28;20052;-48
2022/05/14 08:42:45;;;;;;;6.88;2.22;;;17.50;47.90;;;;;;5044148;28;20067;-46
2022/05/14 08:45:15;;;;;;;9.07;2.60;;;17.60;48.00;;;;;;5038029;28;20076;-49
2022/05/14 08:47:54;;;;;;;12.13;2.90;;;17.70;48.10;;;;;;5040855;28;20055;-50
2022/05/14 08:50:25;;;;;;;7.15;2.53;;;17.70;48.30;;;;;;5051419;28;20444;-48
2022/05/14 08:53:00;;;;;;;12.45;2.95;;;17.80;48.30;;;;;;5054253;28;20055;-47
2022/05/14 08:55:32;;;;;;;6.63;2.55;;;17.90;47.60;;;;;;5051973;28;20423;-49
2022/05/14 08:58:07;;;;;;;6.50;3.17;;;18.00;47.10;;;;;;5058723;28;20056;-47
2022/05/14 09:00:34;;;;;;;11.52;2.60;;;18.00;46.70;;;;;;5047412;28;20072;-46
2022/05/14 09:03:04;;;;;;;6.45;2.42;;;18.10;46.90;;;;;;5049934;28;20059;-47
2022/05/14 09:05:34;;;;;;;4.35;2.30;;;18.10;47.00;;;;;;5051552;28;20060;-48
2022/05/14 09:08:02;;;;;;;9.55;3.38;;;18.20;47.20;;;;;;5028808;28;20067;-50
2022/05/14 09:10:32;;;;;;;7.03;2.50;;;18.30;47.10;;;;;;5054185;28;20053;-46
2022/05/14 09:13:09;;;;;;;10.73;2.92;;;18.30;46.90;;;;;;5053827;28;20048;-47
2022/05/14 09:15:44;;;;;;;8.18;2.58;;;18.30;46.40;;;;;;5051035;28;20053;-46
2022/05/14 09:18:15;;;;;;;8.48;2.60;;;18.40;46.50;;;;;;5053270;28;20048;-46
2022/05/14 09:20:45;;;;;;;6.65;2.22;;;18.40;47.00;;;;;;5057823;28;20049;-49
2022/05/14 09:23:24;;;;;;;12.55;2.35;;;18.50;46.80;;;;;;5056284;28;20416;-50
2022/05/14 09:25:52;;;;;;;6.15;2.35;;;18.50;47.10;;;;;;5054172;28;20489;-48
2022/05/14 09:28:36;;;;;;;9.15;2.75;;;18.60;46.80;;;;;;5056944;28;20052;-47
2022/05/14 09:31:05;;;;;;;5.93;2.20;;;18.60;46.90;;;;;;5056233;28;20063;-48
2022/05/14 09:33:40;;;;;;;10.18;2.08;;;18.70;46.60;;;;;;5046312;28;20389;-47
2022/05/14 09:36:15;;;;;;;4.68;1.60;;;18.80;46.50;;;;;;5038159;28;20100;-46
2022/05/14 09:38:43;;;;;;;6.05;2.00;;;18.90;46.50;;;;;;5048360;28;20492;-51
2022/05/14 09:41:13;;;;;;;9.07;2.60;;;18.90;46.70;;;;;;5055356;28;20060;-46
2022/05/14 09:43:42;;;;;;;9.70;2.53;;;19.00;46.50;;;;;;5047284;28;20631;-50
2022/05/14 09:46:12;;;;;;;8.18;2.47;;;19.00;46.30;;;;;;5060238;28;20048;-47
2022/05/14 09:48:51;;;;;;;4.45;1.83;;;19.10;46.30;;;;;;5057728;28;20053;-51
2022/05/14 09:51:29;;;;;;;4.28;1.73;;;19.10;46.30;;;;;;5059412;28;20064;-46
2022/05/14 09:54:07;;;;;;;7.07;2.20;;;19.20;46.20;;;;;;5056752;28;20065;-47
2022/05/14 09:57:00;;;;;;;8.90;2.50;;;19.30;45.70;;;;;;5063611;28;20060;-49
2022/05/14 09:59:40;;;;;;;7.93;2.00;;;19.30;45.00;;;;;;5025083;28;20393;-48
2022/05/14 10:02:14;;;;;;;7.50;2.35;;;19.30;44.60;;;;;;5061660;28;20768;-50
2022/05/14 10:04:55;;;;;;;5.50;2.20;;;19.40;44.20;;;;;;5065000;28;20515;-49
2022/05/14 10:07:30;;;;;;;9.30;2.03;;;19.40;44.70;;;;;;5062307;28;20510;-48
2022/05/14 10:10:10;;;;;;;7.85;2.00;;;19.40;44.30;;;;;;5061341;28;20060;-48
2022/05/14 10:12:42;;;;;;;9.90;2.42;;;19.50;44.30;;;;;;5063030;28;20048;-46
2022/05/14 10:15:16;;;;;;;10.82;2.70;;;19.50;44.00;;;;;;5064525;28;20515;-46
2022/05/14 10:17:54;;;;;;;6.28;2.45;;;19.50;45.00;;;;;;5064001;28;20052;-47
2022/05/14 10:20:33;;;;;;;6.38;2.97;;;19.60;44.70;;;;;;5063496;28;20412;-46
2022/05/14 10:29:30;;;;;;;8.25;2.58;;;19.80;45.10;;;;;;5070763;28;20515;-52
2022/05/14 10:32:01;;;;;;;6.75;1.98;;;19.90;44.40;;;;;;5059964;28;20432;-47
2022/05/14 10:34:43;;;;;;;7.05;2.20;;;19.90;44.20;;;;;;5062067;28;20059;-46
2022/05/14 10:37:22;;;;;;;7.07;2.05;;;20.00;44.00;;;;;;5061096;28;20045;-50
2022/05/14 10:39:57;;;;;;;7.75;2.22;;;20.00;44.30;;;;;;5063042;28;20048;-47
2022/05/14 10:42:44;;;;;;;7.25;2.15;;;20.10;43.30;;;;;;5061670;28;20407;-47
2022/05/14 10:45:17;;;;;;;5.13;1.80;;;20.10;43.50;;;;;;5041926;28;20419;-50
2022/05/14 10:47:48;;;;;;;5.95;2.17;;;20.20;43.10;;;;;;5059412;28;20056;-47
2022/05/14 10:50:19;;;;;;;10.70;2.17;;;20.20;42.70;;;;;;5059319;28;20415;-46
2022/05/14 10:52:50;;;;;;;5.95;2.05;;;20.30;42.80;;;;;;5048423;28;20427;-46
2022/05/14 10:55:21;;;;;;;5.70;1.80;;;20.40;42.90;;;;;;5056156;28;20428;-50
2022/05/14 10:57:54;;;;;;;5.82;1.60;;;20.50;42.00;;;;;;5049294;28;20381;-48
2022/05/14 11:00:39;;;;;;;4.70;2.00;;;20.50;42.00;;;;;;5055265;28;20060;-51
2022/05/14 11:03:15;;;;;;;15.73;2.83;;;20.50;41.40;;;;;;5049689;28;20053;-48
2022/05/14 11:06:06;;;;;;;6.72;1.55;;;20.60;41.60;;;;;;5050441;28;20059;-45
2022/05/14 11:08:38;;;;;;;7.00;1.83;;;20.70;41.60;;;;;;5055235;28;20059;-46
2022/05/14 11:11:10;;;;;;;8.25;1.92;;;20.70;41.10;;;;;;5057360;28;20072;-51
2022/05/14 11:13:38;;;;;;;5.95;1.52;;;20.70;41.10;;;;;;5053641;28;20535;-46
2022/05/14 11:16:10;;;;;;;5.65;1.80;;;20.80;41.30;;;;;;5059553;28;20053;-46
2022/05/14 11:18:46;;;;;;;9.20;2.53;;;20.80;41.40;;;;;;5061681;28;20053;-47
2022/05/14 11:21:14;;;;;;;6.68;2.17;;;20.90;41.00;;;;;;5062837;28;20063;-49
2022/05/14 11:23:56;;;;;;;5.93;2.17;;;21.00;40.90;;;;;;5058032;28;20063;-49
2022/05/14 11:26:25;;;;;;;12.68;2.60;;;21.00;40.70;;;;;;5041533;28;20048;-49
2022/05/14 11:29:02;;;;;;;3.92;1.48;;;21.00;40.50;;;;;;5062857;28;20463;-46
2022/05/14 11:31:39;;;;;;;7.97;1.80;;;21.10;40.30;;;;;;5056773;28;20063;-47
2022/05/14 11:34:18;;;;;;;9.57;2.47;;;21.10;40.20;;;;;;5059775;28;20420;-51
2022/05/14 11:36:48;;;;;;;11.32;2.08;;;21.20;39.80;;;;;;5060874;28;20056;-46
2022/05/14 11:39:28;;;;;;;9.35;2.28;;;21.20;39.40;;;;;;5058822;28;20056;-49
2022/05/14 11:42:12;;;;;;;9.02;2.30;;;21.30;37.90;;;;;;5057811;28;20044;-50
2022/05/14 11:44:47;;;;;;;8.13;1.60;;;21.20;38.50;;;;;;5060720;28;20060;-47
2022/05/14 11:47:47;;;;;;;6.70;2.30;;;21.30;37.80;;;;;;5056310;28;20059;-48
2022/05/14 11:50:19;;;;;;;5.38;1.83;;;21.30;38.50;;;;;;5058455;28;20060;-48
2022/05/14 11:53:00;;;;;;;10.15;2.50;;;21.40;39.60;;;;;;5053429;28;20057;-49
2022/05/14 11:55:35;;;;;;;9.60;2.92;;;21.40;39.00;;;;;;5062024;28;20060;-47
2022/05/14 11:58:06;;;;;;;9.65;2.30;;;21.50;39.10;;;;;;5060176;28;20408;-47
2022/05/14 12:00:36;;;;;;;6.15;1.50;;;21.60;39.60;;;;;;5053851;28;20052;-46
2022/05/14 12:03:12;;;;;;;5.57;2.17;;;21.60;38.90;;;;;;5055356;28;20052;-48
2022/05/14 12:05:45;;;;;;;12.63;4.40;;;21.60;38.50;;;;;;5052221;28;20052;-51
2022/05/14 12:08:29;;;;;;;8.10;2.70;;;21.70;38.70;;;;;;5047701;28;20067;-49
2022/05/14 12:11:05;;;;;;;12.85;1.95;;;21.70;38.70;;;;;;5051847;28;20052;-46
2022/05/14 12:13:40;;;;;;;8.27;2.50;;;21.80;38.80;;;;;;5058500;28;20056;-48
2022/05/14 12:16:10;;;;;;;8.57;1.90;;;21.90;37.80;;;;;;5054969;28;20059;-47
2022/05/14 12:18:41;;;;;;;4.80;1.50;;;21.90;38.20;;;;;;5054813;28;20048;-46
2022/05/14 12:21:10;;;;;;;7.63;2.13;;;22.00;38.20;;;;;;5057007;28;20052;-47
2022/05/14 12:23:40;;;;;;;5.53;2.10;;;22.10;38.10;;;;;;5051458;28;20053;-45
2022/05/14 12:26:21;;;;;;;8.55;2.33;;;22.10;37.80;;;;;;5059528;28;20052;-46
2022/05/14 12:28:48;;;;;;;11.00;1.85;;;22.10;37.80;;;;;;5058068;28;20060;-45
2022/05/14 12:34:03;;;;;;;8.43;2.30;;;22.10;37.50;;;;;;5058941;28;20491;-49
2022/05/14 12:36:36;;;;;;;7.07;2.15;;;22.10;37.60;;;;;;5060177;28;20432;-47
2022/05/14 12:39:09;;;;;;;9.07;2.70;;;22.20;37.70;;;;;;5059541;28;21060;-47
2022/05/14 12:41:41;;;;;;;5.00;1.92;;;22.20;37.30;;;;;;5059321;28;20504;-47
2022/05/14 12:44:12;;;;;;;9.90;2.05;;;22.30;37.00;;;;;;5059435;28;20055;-46
2022/05/14 12:46:43;;;;;;;7.50;2.20;;;22.30;37.30;;;;;;5057150;28;20827;-48
2022/05/14 12:49:18;;;;;;;11.48;1.95;;;22.40;36.30;;;;;;5057199;28;20059;-48
2022/05/14 12:51:50;;;;;;;4.32;1.63;;;22.40;36.20;;;;;;5056851;28;20059;-45
2022/05/14 12:54:24;;;;;;;6.35;2.22;;;22.50;36.10;;;;;;5056862;28;20488;-46
2022/05/14 12:56:56;;;;;;;6.22;1.65;;;22.50;35.20;;;;;;5057716;28;20044;-50
2022/05/14 12:59:24;;;;;;;5.28;2.13;;;22.50;36.10;;;;;;5059127;28;20079;-48
2022/05/14 13:01:55;;;;;;;9.00;2.25;;;22.50;36.10;;;;;;5057077;28;20052;-46
2022/05/14 13:04:28;;;;;;;7.82;2.17;;;22.60;36.60;;;;;;5059124;28;20056;-46
2022/05/14 13:07:00;;;;;;;6.95;1.90;;;22.60;36.50;;;;;;5059958;28;20075;-48
2022/05/14 13:09:28;;;;;;;6.25;1.92;;;22.60;36.80;;;;;;5061461;28;20056;-46
2022/05/14 13:11:59;;;;;;;4.63;1.67;;;22.70;36.30;;;;;;5056456;28;20587;-46
2022/05/14 13:14:30;;;;;;;7.18;1.75;;;22.70;36.10;;;;;;5055446;28;20063;-46
2022/05/14 13:16:59;;;;;;;9.95;2.63;;;22.80;35.80;;;;;;5055930;28;20048;-45
2022/05/14 13:19:38;;;;;;;7.13;2.15;;;22.70;35.00;;;;;;5056869;28;20052;-49
2022/05/14 13:22:09;;;;;;;8.32;2.30;;;22.80;34.70;;;;;;5056492;28;20064;-45
2022/05/14 13:24:38;;;;;;;11.68;2.58;;;22.80;35.40;;;;;;5058471;28;20057;-47
2022/05/14 13:27:10;;;;;;;6.75;2.25;;;22.80;35.10;;;;;;5058000;28;20385;-46